createdAt,value
2022-09-10T00:00:14.786Z,86.73
2022-09-10T00:03:03.653Z,86.42
2022-09-10T00:05:40.226Z,85.97
2022-09-10T00:08:08.887Z,86.47
2022-09-10T00:10:45.485Z,86.94
2022-09-10T00:13:16.165Z,87.44
2022-09-10T00:15:48.513Z,88.13
2022-09-10T00:18:19.474Z,87.82
2022-09-10T00:20:54.121Z,88.35
2022-09-10T00:23:26.188Z,88.77
2022-09-10T00:25:56.848Z,88.93
2022-09-10T00:28:27.285Z,88.97
2022-09-10T00:30:55.857Z,89.46
2022-09-10T00:33:24.799Z,89.55
2022-09-10T00:35:52.865Z,89.87
2022-09-10T00:38:20.921Z,90.41
2022-09-10T00:40:48.989Z,90.36
2022-09-10T00:43:20.727Z,90.71
2022-09-10T00:45:55.709Z,91.24
2022-09-10T00:48:32.611Z,91.32
2022-09-10T00:51:05.352Z,91.67
2022-09-10T00:53:33.926Z,91.69
2022-09-10T00:56:05.907Z,92.11
2022-09-10T00:58:33.950Z,91.74
2022-09-10T01:01:02.916Z,91.55
2022-09-10T01:03:32.895Z,91.69
2022-09-10T01:06:01.484Z,91.50
2022-09-10T01:08:29.830Z,91.77
2022-09-10T01:11:01.704Z,91.79
2022-09-10T01:13:55.394Z,91.55
2022-09-10T01:17:03.834Z,91.51
2022-09-10T01:19:41.446Z,91.80
2022-09-10T01:22:35.654Z,91.62
2022-09-10T01:25:17.766Z,91.66
2022-09-10T01:27:48.718Z,91.93
2022-09-10T01:30:29.942Z,91.69
2022-09-10T01:33:43.171Z,91.73
2022-09-10T01:36:16.661Z,91.75
2022-09-10T01:38:46.735Z,91.77
2022-09-10T01:41:14.789Z,91.63
2022-09-10T01:43:43.160Z,91.63
2022-09-10T01:46:36.166Z,91.77
2022-09-10T01:49:10.375Z,91.25
2022-09-10T01:51:57.998Z,91.53
2022-09-10T01:54:29.068Z,91.31
2022-09-10T01:57:21.801Z,91.66
2022-09-10T02:00:26.706Z,91.47
2022-09-10T02:03:16.314Z,91.87
2022-09-10T02:05:47.029Z,91.51
2022-09-10T02:08:24.156Z,91.78
2022-09-10T02:10:56.857Z,91.81
2022-09-10T02:13:28.488Z,91.24
2022-09-10T02:15:57.014Z,91.54
2022-09-10T02:18:26.654Z,90.84
2022-09-10T02:20:58.758Z,91.33
2022-09-10T02:23:35.285Z,90.85
2022-09-10T02:26:03.620Z,90.82
2022-09-10T02:28:32.743Z,90.49
2022-09-10T02:31:01.988Z,90.38
2022-09-10T02:33:31.234Z,90.48
2022-09-10T02:35:59.694Z,90.25
2022-09-10T02:38:30.826Z,90.68
2022-09-10T02:40:59.668Z,90.47
2022-09-10T02:43:28.810Z,90.62
2022-09-10T02:45:58.660Z,90.83
2022-09-10T02:48:28.012Z,90.81
2022-09-10T02:50:56.200Z,90.73
2022-09-10T02:53:26.234Z,90.78
2022-09-10T02:55:54.712Z,90.75
2022-09-10T02:58:23.639Z,90.82
2022-09-10T03:00:51.896Z,90.95
2022-09-10T03:03:20.170Z,90.76
2022-09-10T03:05:48.579Z,90.86
2022-09-10T03:08:17.152Z,90.67
2022-09-10T03:10:46.314Z,90.89
2022-09-10T03:13:14.544Z,91.02
2022-09-10T03:15:43.581Z,91.21
2022-09-10T03:18:11.554Z,91.19
2022-09-10T03:20:41.613Z,91.40
2022-09-10T03:23:11.373Z,91.35
2022-09-10T03:25:40.606Z,91.79
2022-09-10T03:28:11.009Z,91.97
2022-09-10T03:30:40.891Z,92.20
2022-09-10T03:33:11.927Z,92.33
2022-09-10T03:35:40.010Z,92.36
2022-09-10T03:38:08.972Z,92.62
2022-09-10T03:40:37.124Z,92.65
2022-09-10T03:43:05.608Z,92.92
2022-09-10T03:45:33.618Z,92.75
2022-09-10T03:48:03.458Z,92.52
2022-09-10T03:50:31.749Z,92.85
2022-09-10T03:53:00.016Z,92.91
2022-09-10T03:55:28.137Z,92.83
2022-09-10T03:57:57.516Z,92.66
2022-09-10T04:00:27.260Z,92.82
2022-09-10T04:02:55.620Z,92.82
2022-09-10T04:05:25.501Z,93.17
2022-09-10T04:07:54.834Z,93.19
2022-09-10T04:10:24.215Z,93.42
2022-09-10T04:12:53.698Z,93.42
2022-09-10T04:15:23.329Z,93.35
2022-09-10T04:17:55.315Z,93.63
2022-09-10T04:20:25.507Z,93.62
2022-09-10T04:22:54.253Z,93.61
2022-09-10T04:25:23.106Z,93.73
2022-09-10T04:27:52.342Z,93.89
2022-09-10T04:30:20.608Z,93.68
2022-09-10T04:32:49.884Z,93.53
2022-09-10T04:35:20.592Z,93.87
2022-09-10T04:37:49.374Z,93.45
2022-09-10T04:40:17.572Z,93.29
2022-09-10T04:42:45.654Z,93.43
2022-09-10T04:45:14.096Z,93.19
2022-09-10T04:47:42.120Z,93.19
2022-09-10T04:50:11.364Z,93.01
2022-09-10T04:52:39.536Z,93.14
2022-09-10T04:55:08.434Z,92.92
2022-09-10T04:57:37.500Z,92.48
2022-09-10T05:00:07.847Z,92.27
2022-09-10T05:02:37.622Z,92.17
2022-09-10T05:05:08.915Z,91.67
2022-09-10T05:07:37.849Z,91.17
2022-09-10T05:10:09.866Z,90.86
2022-09-10T05:12:41.160Z,90.54
2022-09-10T05:15:12.500Z,90.14
2022-09-10T05:17:41.258Z,89.78
2022-09-10T05:20:10.884Z,89.65
2022-09-10T05:22:40.761Z,89.22
2022-09-10T05:25:10.113Z,89.14
2022-09-10T05:27:38.898Z,88.97
2022-09-10T05:30:08.060Z,88.89
2022-09-10T05:32:37.178Z,88.87
2022-09-10T05:35:06.155Z,88.74
2022-09-10T05:37:35.174Z,89.14
2022-09-10T05:40:07.135Z,88.84
2022-09-10T05:42:38.732Z,88.81
2022-09-10T05:45:07.555Z,88.69
2022-09-10T05:47:36.416Z,88.66
2022-09-10T05:50:05.612Z,88.91
2022-09-10T05:52:33.864Z,89.09
2022-09-10T05:55:01.878Z,89.05
2022-09-10T05:57:31.370Z,89.02
2022-09-10T06:00:00.291Z,89.34
2022-09-10T06:03:10.174Z,89.21
2022-09-10T06:05:38.644Z,89.15
2022-09-10T06:08:09.038Z,89.11
2022-09-10T06:10:43.337Z,89.10
2022-09-10T06:13:12.146Z,89.35
2022-09-10T06:15:43.947Z,89.28
2022-09-10T06:18:19.799Z,89.30
2022-09-10T06:21:03.822Z,89.40
2022-09-10T06:23:46.832Z,89.57
2022-09-10T06:26:21.843Z,89.33
2022-09-10T06:28:57.090Z,89.10
2022-09-10T06:31:28.302Z,89.28
2022-09-10T06:34:00.148Z,89.35
2022-09-10T06:36:29.817Z,89.41
2022-09-10T06:39:03.831Z,89.37
2022-09-10T06:41:41.403Z,89.51
2022-09-10T06:44:13.339Z,89.56
2022-09-10T06:49:56.307Z,89.39
2022-09-10T06:52:40.914Z,89.60
2022-09-10T06:55:13.027Z,89.80
2022-09-10T06:57:54.427Z,89.77
2022-09-10T07:00:29.492Z,89.64
2022-09-10T07:03:11.610Z,89.53
2022-09-10T07:05:44.155Z,89.90
2022-09-10T07:08:23.382Z,89.95
2022-09-10T07:11:00.746Z,90.15
2022-09-10T07:13:30.247Z,90.22
2022-09-10T07:16:12.980Z,90.32
2022-09-10T07:18:42.279Z,90.50
2022-09-10T07:21:16.000Z,90.38
2022-09-10T07:23:48.674Z,90.55
2022-09-10T07:26:19.624Z,90.22
2022-09-10T07:28:48.249Z,89.91
2022-09-10T07:31:27.438Z,89.76
2022-09-10T07:33:57.828Z,89.71
2022-09-10T07:36:26.137Z,89.70
2022-09-10T07:38:57.764Z,89.80
2022-09-10T07:41:33.464Z,89.28
2022-09-10T07:44:02.091Z,88.61
2022-09-10T07:46:30.333Z,87.99
2022-09-10T07:49:01.016Z,87.61
2022-09-10T07:51:32.680Z,87.26
2022-09-10T07:54:08.664Z,86.64
2022-09-10T07:56:38.850Z,86.09
2022-09-10T07:59:13.388Z,85.48
2022-09-10T08:01:41.645Z,84.20
2022-09-10T08:04:10.477Z,84.13
2022-09-10T08:06:39.244Z,83.81
2022-09-10T08:09:07.855Z,83.61
2022-09-10T08:11:36.157Z,83.35
2022-09-10T08:14:05.025Z,82.42
2022-09-10T08:16:36.547Z,82.56
2022-09-10T08:19:06.201Z,82.56
2022-09-10T08:21:40.541Z,82.43
2022-09-10T08:24:10.781Z,82.07
2022-09-10T08:26:39.291Z,81.74
2022-09-10T08:29:07.521Z,81.38
2022-09-10T08:31:35.838Z,81.18
2022-09-10T08:34:03.998Z,81.11
2022-09-10T08:36:33.430Z,81.09
2022-09-10T08:39:08.318Z,80.88
2022-09-10T08:41:39.757Z,80.26
2022-09-10T08:44:34.978Z,80.28
2022-09-10T08:47:06.162Z,79.82
2022-09-10T08:49:37.674Z,79.33
2022-09-10T08:52:12.112Z,79.41
2022-09-10T08:54:50.175Z,78.90
2022-09-10T08:57:39.009Z,78.21
2022-09-10T09:00:13.225Z,77.66
2022-09-10T09:02:58.035Z,77.77
2022-09-10T09:05:28.321Z,77.72
2022-09-10T09:07:59.798Z,78.30
2022-09-10T09:10:40.771Z,78.24
2022-09-10T09:13:27.276Z,78.24
2022-09-10T09:16:33.125Z,77.88
2022-09-10T09:19:07.581Z,77.59
2022-09-10T09:21:49.661Z,77.28
2022-09-10T09:24:29.312Z,76.94
2022-09-10T09:27:10.100Z,76.60
2022-09-10T09:29:50.934Z,75.59
2022-09-10T09:32:21.955Z,74.82
2022-09-10T09:34:54.689Z,74.78
2022-09-10T09:37:30.302Z,74.82
2022-09-10T09:40:22.260Z,72.53
2022-09-10T09:43:09.865Z,72.32
2022-09-10T09:45:43.153Z,72.33
2022-09-10T09:48:17.332Z,72.04
2022-09-10T09:50:49.224Z,71.72
2022-09-10T09:53:26.495Z,71.68
2022-09-10T09:56:30.566Z,72.13
2022-09-10T09:59:15.100Z,71.76
2022-09-10T10:01:43.806Z,72.03
2022-09-10T10:04:31.135Z,71.43
2022-09-10T10:07:01.451Z,71.05
2022-09-10T10:09:41.405Z,71.07
2022-09-10T10:12:25.326Z,71.15
2022-09-10T10:14:53.772Z,70.80
2022-09-10T10:17:25.026Z,70.73
2022-09-10T10:20:05.647Z,70.52
2022-09-10T10:22:36.198Z,69.85
2022-09-10T10:25:26.699Z,70.23
2022-09-10T10:27:55.005Z,70.07
2022-09-10T10:30:25.253Z,70.01
2022-09-10T10:33:05.412Z,69.30
2022-09-10T10:36:00.107Z,68.00
2022-09-10T10:38:34.823Z,67.63
2022-09-10T10:41:25.838Z,66.97
2022-09-10T10:44:39.886Z,68.02
2022-09-10T10:47:28.331Z,68.41
2022-09-10T10:50:25.736Z,67.94
2022-09-10T10:53:22.547Z,66.59
2022-09-10T10:56:36.316Z,65.63
2022-09-10T10:59:29.404Z,63.75
2022-09-10T11:02:20.457Z,62.64
2022-09-10T11:04:50.754Z,61.03
2022-09-10T11:07:30.264Z,59.50
2022-09-10T11:10:00.778Z,59.39
2022-09-10T11:12:36.280Z,59.25
2022-09-10T11:15:37.309Z,58.75
2022-09-10T11:18:38.712Z,57.81
2022-09-10T11:21:33.838Z,56.60
2022-09-10T11:24:21.050Z,56.27
2022-09-10T11:26:55.901Z,55.53
2022-09-10T11:33:14.737Z,56.45
2022-09-10T11:36:06.280Z,56.19
2022-09-10T11:39:13.081Z,55.66
2022-09-10T11:41:50.095Z,54.90
2022-09-10T11:44:39.364Z,55.60
2022-09-10T11:47:23.096Z,55.44
2022-09-10T11:50:03.514Z,55.51
2022-09-10T11:52:35.831Z,55.32
2022-09-10T11:55:13.438Z,55.89
2022-09-10T11:58:12.233Z,56.46
2022-09-10T12:00:54.693Z,56.54
2022-09-10T12:04:02.027Z,56.69
2022-09-10T12:06:56.913Z,55.41
2022-09-10T12:09:37.888Z,55.60
2022-09-10T12:12:17.100Z,56.57
2022-09-10T12:14:46.264Z,56.52
2022-09-10T12:17:30.439Z,57.09
2022-09-10T12:20:01.814Z,57.77
2022-09-10T12:22:40.678Z,58.25
2022-09-10T12:25:28.341Z,58.17
2022-09-10T12:28:03.204Z,58.14
2022-09-10T12:30:48.829Z,58.58
2022-09-10T12:33:22.349Z,58.70
2022-09-10T12:35:54.214Z,58.63
2022-09-10T12:38:53.871Z,58.78
2022-09-10T12:41:25.079Z,58.50
2022-09-10T12:43:56.332Z,57.63
2022-09-10T12:46:26.067Z,55.33
2022-09-10T12:48:55.678Z,54.54
2022-09-10T12:51:42.707Z,54.14
2022-09-10T12:54:20.706Z,53.75
2022-09-10T12:57:04.384Z,54.30
2022-09-10T13:00:00.615Z,55.47
2022-09-10T13:02:54.816Z,56.28
2022-09-10T13:05:32.228Z,56.51
2022-09-10T13:08:15.693Z,57.63
2022-09-10T13:10:47.598Z,60.59
2022-09-10T13:13:38.167Z,62.34
2022-09-10T13:16:26.959Z,63.27
2022-09-10T13:19:17.772Z,64.09
2022-09-10T13:21:46.876Z,64.15
2022-09-10T13:25:01.302Z,62.25
2022-09-10T13:27:40.858Z,60.83
2022-09-10T13:30:17.748Z,61.19
2022-09-10T13:32:55.467Z,61.74
2022-09-10T13:36:21.884Z,62.75
2022-09-10T13:39:22.258Z,63.51
2022-09-10T13:42:42.745Z,63.93
2022-09-10T13:45:55.933Z,63.92
2022-09-10T13:49:00.302Z,63.99
2022-09-10T13:52:00.315Z,64.51
2022-09-10T13:54:45.886Z,65.26
2022-09-10T13:57:27.816Z,65.56
2022-09-10T14:00:46.992Z,66.31
2022-09-10T14:03:49.264Z,67.38
2022-09-10T14:06:36.910Z,68.07
2022-09-10T14:09:10.963Z,69.52
2022-09-10T14:11:50.017Z,70.63
2022-09-10T14:14:49.428Z,71.73
2022-09-10T14:18:09.004Z,72.72
2022-09-10T14:21:07.138Z,73.48
2022-09-10T14:23:54.256Z,74.21
2022-09-10T14:26:40.487Z,74.32
2022-09-10T14:29:28.530Z,74.60
2022-09-10T14:32:30.952Z,75.61
2022-09-10T14:35:42.912Z,76.18
2022-09-10T14:38:49.608Z,76.78
2022-09-10T14:41:30.859Z,77.19
2022-09-10T14:44:20.820Z,78.06
2022-09-10T14:47:02.165Z,78.75
2022-09-10T14:49:49.181Z,78.61
2022-09-10T14:52:23.029Z,78.24
2022-09-10T14:55:14.102Z,78.26
2022-09-10T14:57:51.534Z,78.29
2022-09-10T15:00:32.917Z,79.03
2022-09-10T15:03:05.318Z,79.40
2022-09-10T15:05:55.016Z,79.53
2022-09-10T15:08:41.212Z,79.29
2022-09-10T15:11:27.539Z,78.88
2022-09-10T15:14:19.920Z,78.66
2022-09-10T15:16:59.909Z,78.49
2022-09-10T15:19:45.241Z,78.27
2022-09-10T15:22:23.804Z,78.12
2022-09-10T15:25:10.442Z,77.67
2022-09-10T15:28:15.610Z,77.73
2022-09-10T15:30:57.406Z,77.59
2022-09-10T15:34:04.368Z,77.83
2022-09-10T15:36:55.915Z,77.65
2022-09-10T15:40:00.578Z,77.61
2022-09-10T15:42:33.278Z,77.93
2022-09-10T15:45:31.261Z,77.86
2022-09-10T15:48:07.671Z,78.44
2022-09-10T15:50:54.333Z,78.30
2022-09-10T15:53:46.508Z,78.28
2022-09-10T15:56:27.592Z,78.12
2022-09-10T15:59:09.285Z,77.56
2022-09-10T16:01:54.323Z,77.24
2022-09-10T16:04:23.615Z,77.11
2022-09-10T16:07:05.505Z,77.66
2022-09-10T16:09:47.603Z,77.91
2022-09-10T16:12:22.950Z,76.82
2022-09-10T16:14:54.593Z,76.79
2022-09-10T16:17:35.124Z,76.87
2022-09-10T16:20:33.209Z,77.18
2022-09-10T16:23:18.071Z,77.20
2022-09-10T16:26:12.423Z,76.92
2022-09-10T16:29:10.160Z,76.80
2022-09-10T16:32:01.562Z,76.65
2022-09-10T16:34:37.685Z,76.60
2022-09-10T16:37:14.424Z,76.81
2022-09-10T16:39:52.546Z,76.85
2022-09-10T16:42:46.944Z,76.71
2022-09-10T16:45:20.692Z,77.10
2022-09-10T16:47:52.482Z,77.13
2022-09-10T16:50:33.058Z,77.06
2022-09-10T16:53:12.047Z,77.40
2022-09-10T16:56:18.148Z,77.42
2022-09-10T16:59:00.999Z,77.51
2022-09-10T17:01:59.584Z,77.59
2022-09-10T17:04:39.870Z,77.86
2022-09-10T17:07:15.076Z,78.12
2022-09-10T17:09:51.502Z,78.40
2022-09-10T17:12:32.394Z,79.27
2022-09-10T17:15:20.434Z,79.79
2022-09-10T17:18:05.132Z,80.38
2022-09-10T17:20:51.971Z,81.00
2022-09-10T17:23:42.943Z,81.32
2022-09-10T17:26:26.644Z,81.57
2022-09-10T17:29:26.741Z,81.78
2022-09-10T17:32:10.874Z,82.47
2022-09-10T17:35:06.891Z,82.35
2022-09-10T17:37:56.479Z,82.57
2022-09-10T17:40:59.876Z,83.02
2022-09-10T17:43:40.711Z,83.13
2022-09-10T17:46:53.920Z,83.57
2022-09-10T17:49:37.702Z,83.99
2022-09-10T17:52:22.767Z,84.42
2022-09-10T17:55:09.426Z,84.56
2022-09-10T17:58:00.030Z,84.34
2022-09-10T18:00:51.016Z,84.98
2022-09-10T18:03:30.621Z,85.25
2022-09-10T18:06:31.875Z,85.32
2022-09-10T18:09:35.750Z,85.89
2022-09-10T18:12:14.940Z,86.01
2022-09-10T18:15:33.440Z,85.97
2022-09-10T18:18:31.847Z,86.22
2022-09-10T18:21:58.257Z,85.74
2022-09-10T18:25:09.016Z,85.18
2022-09-10T18:27:55.824Z,85.65
2022-09-10T18:30:35.976Z,85.97
2022-09-10T18:33:11.460Z,86.30
2022-09-10T18:36:23.433Z,86.41
2022-09-10T18:38:56.069Z,86.73
2022-09-10T18:42:12.254Z,86.93
2022-09-10T18:45:22.628Z,86.92
2022-09-10T18:48:29.234Z,86.89
2022-09-10T18:51:52.071Z,87.13
2022-09-10T18:54:55.065Z,86.96
2022-09-10T18:58:07.143Z,86.89
2022-09-10T19:00:48.579Z,86.76
2022-09-10T19:03:57.035Z,86.82
2022-09-10T19:06:46.127Z,86.52
2022-09-10T19:09:44.647Z,86.58
2022-09-10T19:13:03.816Z,86.37
2022-09-10T19:16:03.914Z,85.90
2022-09-10T19:18:32.955Z,85.48
2022-09-10T19:21:37.580Z,85.23
2022-09-10T19:24:12.155Z,84.73
2022-09-10T19:26:45.174Z,84.56
2022-09-10T19:29:22.725Z,84.63
2022-09-10T19:31:53.248Z,84.95
2022-09-10T19:34:29.274Z,85.25
2022-09-10T19:37:12.315Z,85.47
2022-09-10T19:39:57.570Z,85.66
2022-09-10T19:42:28.795Z,85.89
2022-09-10T19:45:10.348Z,86.33
2022-09-10T19:47:40.691Z,86.74
2022-09-10T19:50:12.457Z,86.94
2022-09-10T19:52:48.273Z,87.30
2022-09-10T19:55:24.128Z,87.57
2022-09-10T19:57:55.945Z,87.96
2022-09-10T20:00:46.509Z,88.12
2022-09-10T20:03:16.775Z,88.44
2022-09-10T20:05:49.079Z,88.83
2022-09-10T20:08:23.818Z,89.47
2022-09-10T20:10:52.516Z,89.59
2022-09-10T20:13:27.591Z,89.68
2022-09-10T20:15:56.169Z,89.72
2022-09-10T20:18:29.540Z,89.34
2022-09-10T20:21:25.418Z,89.16
2022-09-10T20:24:00.506Z,89.10
2022-09-10T20:26:41.513Z,89.40
2022-09-10T20:29:17.132Z,89.53
2022-09-10T20:32:00.537Z,89.42
2022-09-10T20:34:37.273Z,89.88
2022-09-10T20:37:24.250Z,90.22
2022-09-10T20:40:19.558Z,90.37
2022-09-10T20:43:12.564Z,90.82
2022-09-10T20:46:00.065Z,90.95
2022-09-10T20:48:32.008Z,91.29
2022-09-10T20:51:07.773Z,91.47
2022-09-10T20:53:43.782Z,91.68
2022-09-10T20:56:16.509Z,92.06
2022-09-10T20:58:49.723Z,92.09
2022-09-10T21:01:20.481Z,91.90
2022-09-10T21:03:54.499Z,92.37
2022-09-10T21:06:28.023Z,92.70
2022-09-10T21:08:57.384Z,92.90
2022-09-10T21:11:37.426Z,93.08
2022-09-10T21:14:19.165Z,93.45
2022-09-10T21:16:55.019Z,93.50
2022-09-10T21:19:28.713Z,93.65
2022-09-10T21:22:08.298Z,93.56
2022-09-10T21:24:47.327Z,93.67
2022-09-10T21:27:21.124Z,93.67
2022-09-10T21:29:56.237Z,93.66
2022-09-10T21:32:39.189Z,93.81
2022-09-10T21:35:13.089Z,93.63
2022-09-10T21:37:45.031Z,93.95
2022-09-10T21:40:23.333Z,94.10
2022-09-10T23:47:28.620Z,96.27
2022-09-10T23:50:02.190Z,96.40
2022-09-10T23:53:09.625Z,96.54
2022-09-10T23:55:49.460Z,96.35
2022-09-10T23:59:25.696Z,96.12
